sensor_id;sensor_type;location;lat;lon;timestamp;P1;durP1;ratioP1;P2;durP2;ratioP2
77191;SDS011;66172;48.526;8.078;2023-06-04T00:01:39;9.07;;;4.40;;
77191;SDS011;66172;48.526;8.078;2023-06-04T00:04:05;9.60;;;4.70;;
77191;SDS011;66172;48.526;8.078;2023-06-04T00:06:31;12.68;;;5.43;;
77191;SDS011;66172;48.526;8.078;2023-06-04T00:08:56;8.43;;;4.65;;
77191;SDS011;66172;48.526;8.078;2023-06-04T00:11:22;9.97;;;4.70;;
77191;SDS011;66172;48.526;8.078;2023-06-04T00:13:48;9.60;;;4.60;;
77191;SDS011;66172;48.526;8.078;2023-06-04T00:16:14;7.93;;;4.50;;
77191;SDS011;66172;48.526;8.078;2023-06-04T00:18:40;9.53;;;4.37;;
77191;SDS011;66172;48.526;8.078;2023-06-04T00:21:06;8.07;;;4.50;;
77191;SDS011;66172;48.526;8.078;2023-06-04T00:23:32;9.35;;;4.43;;
77191;SDS011;66172;48.526;8.078;2023-06-04T00:25:58;11.52;;;4.80;;
77191;SDS011;66172;48.526;8.078;2023-06-04T00:28:23;9.63;;;4.67;;
77191;SDS011;66172;48.526;8.078;2023-06-04T00:30:50;10.15;;;5.25;;
77191;SDS011;66172;48.526;8.078;2023-06-04T00:33:16;11.18;;;4.65;;
77191;SDS011;66172;48.526;8.078;2023-06-04T00:35:42;10.50;;;4.70;;
77191;SDS011;66172;48.526;8.078;2023-06-04T00:38:08;11.07;;;4.73;;
77191;SDS011;66172;48.526;8.078;2023-06-04T00:40:34;10.32;;;5.35;;
77191;SDS011;66172;48.526;8.078;2023-06-04T00:43:00;10.68;;;4.88;;
77191;SDS011;66172;48.526;8.078;2023-06-04T00:45:26;10.55;;;4.95;;
77191;SDS011;66172;48.526;8.078;2023-06-04T00:47:52;10.07;;;4.77;;
77191;SDS011;66172;48.526;8.078;2023-06-04T00:50:18;10.32;;;4.75;;
77191;SDS011;66172;48.526;8.078;2023-06-04T00:52:47;10.32;;;4.60;;
77191;SDS011;66172;48.526;8.078;2023-06-04T00:55:13;10.57;;;4.80;;
77191;SDS011;66172;48.526;8.078;2023-06-04T00:57:40;10.70;;;5.30;;
77191;SDS011;66172;48.526;8.078;2023-06-04T01:00:06;8.33;;;4.40;;
77191;SDS011;66172;48.526;8.078;2023-06-04T01:02:33;9.77;;;4.60;;
77191;SDS011;66172;48.526;8.078;2023-06-04T01:05:03;8.43;;;4.22;;
77191;SDS011;66172;48.526;8.078;2023-06-04T01:07:35;8.63;;;4.88;;
77191;SDS011;66172;48.526;8.078;2023-06-04T01:10:02;10.03;;;5.23;;
77191;SDS011;66172;48.526;8.078;2023-06-04T01:12:28;10.57;;;4.97;;
77191;SDS011;66172;48.526;8.078;2023-06-04T01:14:54;10.38;;;4.90;;
77191;SDS011;66172;48.526;8.078;2023-06-04T01:17:21;9.20;;;5.15;;
77191;SDS011;66172;48.526;8.078;2023-06-04T01:20:11;11.13;;;4.65;;
77191;SDS011;66172;48.526;8.078;2023-06-04T01:22:52;11.37;;;4.70;;
77191;SDS011;66172;48.526;8.078;2023-06-04T01:25:37;11.27;;;4.90;;
77191;SDS011;66172;48.526;8.078;2023-06-04T01:28:06;9.00;;;4.88;;
77191;SDS011;66172;48.526;8.078;2023-06-04T01:30:34;9.70;;;5.20;;
77191;SDS011;66172;48.526;8.078;2023-06-04T01:33:17;10.93;;;5.10;;
77191;SDS011;66172;48.526;8.078;2023-06-04T01:35:44;10.07;;;4.80;;
77191;SDS011;66172;48.526;8.078;2023-06-04T01:38:10;12.05;;;5.07;;
77191;SDS011;66172;48.526;8.078;2023-06-04T01:40:36;11.40;;;5.22;;
77191;SDS011;66172;48.526;8.078;2023-06-04T01:43:03;10.73;;;5.10;;
77191;SDS011;66172;48.526;8.078;2023-06-04T01:45:29;10.45;;;4.82;;
77191;SDS011;66172;48.526;8.078;2023-06-04T01:47:55;9.17;;;4.80;;
77191;SDS011;66172;48.526;8.078;2023-06-04T01:50:22;8.77;;;4.90;;
77191;SDS011;66172;48.526;8.078;2023-06-04T01:52:48;10.98;;;5.00;;
77191;SDS011;66172;48.526;8.078;2023-06-04T01:55:15;9.25;;;4.97;;
77191;SDS011;66172;48.526;8.078;2023-06-04T01:57:42;11.68;;;5.28;;
77191;SDS011;66172;48.526;8.078;2023-06-04T02:00:13;9.60;;;4.97;;
77191;SDS011;66172;48.526;8.078;2023-06-04T02:02:41;11.20;;;5.70;;
77191;SDS011;66172;48.526;8.078;2023-06-04T02:05:08;9.95;;;4.97;;
77191;SDS011;66172;48.526;8.078;2023-06-04T02:07:35;10.10;;;5.32;;
77191;SDS011;66172;48.526;8.078;2023-06-04T02:10:05;13.20;;;4.80;;
77191;SDS011;66172;48.526;8.078;2023-06-04T02:12:32;12.50;;;5.30;;
77191;SDS011;66172;48.526;8.078;2023-06-04T02:14:58;11.60;;;5.70;;
77191;SDS011;66172;48.526;8.078;2023-06-04T02:17:24;9.93;;;5.25;;
77191;SDS011;66172;48.526;8.078;2023-06-04T02:19:50;9.52;;;4.72;;
77191;SDS011;66172;48.526;8.078;2023-06-04T02:22:17;15.97;;;5.10;;
77191;SDS011;66172;48.526;8.078;2023-06-04T02:24:44;10.45;;;5.20;;
77191;SDS011;66172;48.526;8.078;2023-06-04T02:27:10;9.63;;;5.22;;
77191;SDS011;66172;48.526;8.078;2023-06-04T02:29:38;10.05;;;5.25;;
77191;SDS011;66172;48.526;8.078;2023-06-04T02:32:05;9.97;;;5.00;;
77191;SDS011;66172;48.526;8.078;2023-06-04T02:34:31;11.23;;;5.65;;
77191;SDS011;66172;48.526;8.078;2023-06-04T02:36:57;9.88;;;5.10;;
77191;SDS011;66172;48.526;8.078;2023-06-04T02:39:24;11.20;;;5.18;;
77191;SDS011;66172;48.526;8.078;2023-06-04T02:41:49;12.83;;;5.63;;
77191;SDS011;66172;48.526;8.078;2023-06-04T02:44:15;11.10;;;5.17;;
77191;SDS011;66172;48.526;8.078;2023-06-04T02:46:41;10.55;;;5.10;;
77191;SDS011;66172;48.526;8.078;2023-06-04T02:49:09;11.95;;;5.10;;
77191;SDS011;66172;48.526;8.078;2023-06-04T02:51:39;11.10;;;4.90;;
77191;SDS011;66172;48.526;8.078;2023-06-04T02:54:06;10.47;;;5.40;;
77191;SDS011;66172;48.526;8.078;2023-06-04T02:56:33;14.50;;;5.57;;
77191;SDS011;66172;48.526;8.078;2023-06-04T02:58:59;11.55;;;4.80;;
77191;SDS011;66172;48.526;8.078;2023-06-04T03:01:25;10.82;;;5.40;;
77191;SDS011;66172;48.526;8.078;2023-06-04T03:03:52;10.90;;;5.47;;
77191;SDS011;66172;48.526;8.078;2023-06-04T03:06:19;9.60;;;5.00;;
77191;SDS011;66172;48.526;8.078;2023-06-04T03:08:47;10.07;;;5.03;;
77191;SDS011;66172;48.526;8.078;2023-06-04T03:11:13;9.90;;;5.95;;
77191;SDS011;66172;48.526;8.078;2023-06-04T03:13:39;9.73;;;4.93;;
77191;SDS011;66172;48.526;8.078;2023-06-04T03:16:05;9.60;;;5.30;;
77191;SDS011;66172;48.526;8.078;2023-06-04T03:18:39;10.18;;;5.18;;
77191;SDS011;66172;48.526;8.078;2023-06-04T03:21:06;13.68;;;5.45;;
77191;SDS011;66172;48.526;8.078;2023-06-04T03:23:32;10.80;;;4.80;;
77191;SDS011;66172;48.526;8.078;2023-06-04T03:26:02;11.77;;;5.63;;
77191;SDS011;66172;48.526;8.078;2023-06-04T03:28:29;9.97;;;5.13;;
77191;SDS011;66172;48.526;8.078;2023-06-04T03:30:56;11.90;;;5.55;;
77191;SDS011;66172;48.526;8.078;2023-06-04T03:33:22;11.52;;;5.40;;
77191;SDS011;66172;48.526;8.078;2023-06-04T03:35:49;9.80;;;5.10;;
77191;SDS011;66172;48.526;8.078;2023-06-04T03:38:24;10.48;;;4.72;;
77191;SDS011;66172;48.526;8.078;2023-06-04T03:40:53;10.17;;;4.73;;
77191;SDS011;66172;48.526;8.078;2023-06-04T03:43:19;11.45;;;5.20;;
77191;SDS011;66172;48.526;8.078;2023-06-04T03:45:45;10.55;;;5.53;;
77191;SDS011;66172;48.526;8.078;2023-06-04T03:48:11;13.30;;;5.45;;
77191;SDS011;66172;48.526;8.078;2023-06-04T03:50:37;11.50;;;5.40;;
77191;SDS011;66172;48.526;8.078;2023-06-04T03:53:03;10.48;;;5.25;;
77191;SDS011;66172;48.526;8.078;2023-06-04T03:55:30;10.95;;;5.40;;
77191;SDS011;66172;48.526;8.078;2023-06-04T03:57:57;15.02;;;6.20;;
77191;SDS011;66172;48.526;8.078;2023-06-04T04:00:24;10.77;;;5.67;;
77191;SDS011;66172;48.526;8.078;2023-06-04T04:02:50;13.27;;;5.50;;
77191;SDS011;66172;48.526;8.078;2023-06-04T04:05:16;10.68;;;5.68;;
77191;SDS011;66172;48.526;8.078;2023-06-04T04:07:42;11.82;;;5.47;;
77191;SDS011;66172;48.526;8.078;2023-06-04T04:10:07;12.17;;;5.60;;
77191;SDS011;66172;48.526;8.078;2023-06-04T04:12:33;11.80;;;5.47;;
77191;SDS011;66172;48.526;8.078;2023-06-04T04:14:59;12.52;;;5.70;;
77191;SDS011;66172;48.526;8.078;2023-06-04T04:17:25;10.90;;;5.60;;
77191;SDS011;66172;48.526;8.078;2023-06-04T04:19:51;9.70;;;4.97;;
77191;SDS011;66172;48.526;8.078;2023-06-04T04:22:17;10.82;;;5.30;;
77191;SDS011;66172;48.526;8.078;2023-06-04T04:24:43;12.70;;;5.53;;
77191;SDS011;66172;48.526;8.078;2023-06-04T04:27:09;11.77;;;5.28;;
77191;SDS011;66172;48.526;8.078;2023-06-04T04:29:38;10.10;;;5.35;;
77191;SDS011;66172;48.526;8.078;2023-06-04T04:32:04;11.50;;;5.60;;
77191;SDS011;66172;48.526;8.078;2023-06-04T04:34:37;11.23;;;5.18;;
77191;SDS011;66172;48.526;8.078;2023-06-04T04:37:08;11.30;;;5.78;;
77191;SDS011;66172;48.526;8.078;2023-06-04T04:39:35;10.85;;;5.13;;
77191;SDS011;66172;48.526;8.078;2023-06-04T04:42:04;10.55;;;5.65;;
77191;SDS011;66172;48.526;8.078;2023-06-04T04:44:30;10.27;;;5.57;;
77191;SDS011;66172;48.526;8.078;2023-06-04T04:46:56;11.70;;;5.72;;
77191;SDS011;66172;48.526;8.078;2023-06-04T04:49:22;10.40;;;5.70;;
77191;SDS011;66172;48.526;8.078;2023-06-04T04:51:48;8.83;;;5.27;;
77191;SDS011;66172;48.526;8.078;2023-06-04T04:54:14;9.73;;;4.80;;
77191;SDS011;66172;48.526;8.078;2023-06-04T04:56:40;10.48;;;5.30;;
77191;SDS011;66172;48.526;8.078;2023-06-04T04:59:06;11.45;;;5.45;;
77191;SDS011;66172;48.526;8.078;2023-06-04T05:01:32;9.20;;;5.37;;
77191;SDS011;66172;48.526;8.078;2023-06-04T05:03:58;11.73;;;5.63;;
77191;SDS011;66172;48.526;8.078;2023-06-04T05:06:23;10.27;;;5.03;;
77191;SDS011;66172;48.526;8.078;2023-06-04T05:08:49;12.13;;;5.57;;
77191;SDS011;66172;48.526;8.078;2023-06-04T05:11:15;10.13;;;5.57;;
77191;SDS011;66172;48.526;8.078;2023-06-04T05:13:41;9.48;;;5.75;;
77191;SDS011;66172;48.526;8.078;2023-06-04T05:16:07;10.05;;;5.20;;
77191;SDS011;66172;48.526;8.078;2023-06-04T05:18:34;9.47;;;5.57;;
77191;SDS011;66172;48.526;8.078;2023-06-04T05:21:00;10.82;;;5.55;;
77191;SDS011;66172;48.526;8.078;2023-06-04T05:23:28;10.75;;;5.57;;
77191;SDS011;66172;48.526;8.078;2023-06-04T05:25:58;9.52;;;5.03;;
77191;SDS011;66172;48.526;8.078;2023-06-04T05:28:25;10.52;;;5.20;;
77191;SDS011;66172;48.526;8.078;2023-06-04T05:30:51;8.97;;;4.60;;
77191;SDS011;66172;48.526;8.078;2023-06-04T05:33:17;10.50;;;4.10;;
77191;SDS011;66172;48.526;8.078;2023-06-04T05:35:46;10.30;;;4.18;;
77191;SDS011;66172;48.526;8.078;2023-06-04T05:38:14;8.40;;;4.80;;
77191;SDS011;66172;48.526;8.078;2023-06-04T05:40:46;8.75;;;4.35;;
77191;SDS011;66172;48.526;8.078;2023-06-04T05:43:12;8.67;;;4.23;;
77191;SDS011;66172;48.526;8.078;2023-06-04T05:45:38;9.95;;;4.40;;
77191;SDS011;66172;48.526;8.078;2023-06-04T05:48:05;8.60;;;4.13;;
77191;SDS011;66172;48.526;8.078;2023-06-04T05:50:31;6.80;;;3.88;;
77191;SDS011;66172;48.526;8.078;2023-06-04T05:52:57;7.53;;;3.97;;
77191;SDS011;66172;48.526;8.078;2023-06-04T05:55:23;8.23;;;4.07;;
77191;SDS011;66172;48.526;8.078;2023-06-04T05:57:49;7.90;;;4.25;;
77191;SDS011;66172;48.526;8.078;2023-06-04T06:00:17;8.68;;;4.50;;
77191;SDS011;66172;48.526;8.078;2023-06-04T06:02:43;8.52;;;4.10;;
77191;SDS011;66172;48.526;8.078;2023-06-04T06:05:10;6.93;;;4.50;;
77191;SDS011;66172;48.526;8.078;2023-06-04T06:07:36;8.50;;;4.10;;
77191;SDS011;66172;48.526;8.078;2023-06-04T06:10:02;9.07;;;4.75;;
77191;SDS011;66172;48.526;8.078;2023-06-04T06:12:29;9.02;;;4.30;;
77191;SDS011;66172;48.526;8.078;2023-06-04T06:14:55;11.80;;;4.18;;
77191;SDS011;66172;48.526;8.078;2023-06-04T06:17:21;7.70;;;4.27;;
77191;SDS011;66172;48.526;8.078;2023-06-04T06:19:48;11.00;;;4.60;;
77191;SDS011;66172;48.526;8.078;2023-06-04T06:22:14;7.95;;;4.22;;
77191;SDS011;66172;48.526;8.078;2023-06-04T06:24:40;10.57;;;4.55;;
77191;SDS011;66172;48.526;8.078;2023-06-04T06:27:06;6.40;;;3.93;;
77191;SDS011;66172;48.526;8.078;2023-06-04T06:29:33;8.35;;;4.20;;
77191;SDS011;66172;48.526;8.078;2023-06-04T06:31:59;8.73;;;4.15;;
77191;SDS011;66172;48.526;8.078;2023-06-04T06:34:26;8.57;;;4.00;;
77191;SDS011;66172;48.526;8.078;2023-06-04T06:36:52;8.43;;;4.20;;
77191;SDS011;66172;48.526;8.078;2023-06-04T06:39:18;11.80;;;4.78;;
77191;SDS011;66172;48.526;8.078;2023-06-04T06:41:44;6.68;;;4.03;;
77191;SDS011;66172;48.526;8.078;2023-06-04T06:44:11;7.47;;;4.20;;
77191;SDS011;66172;48.526;8.078;2023-06-04T06:46:37;7.17;;;4.10;;
77191;SDS011;66172;48.526;8.078;2023-06-04T06:49:03;9.55;;;3.92;;
77191;SDS011;66172;48.526;8.078;2023-06-04T06:51:28;6.53;;;3.70;;
77191;SDS011;66172;48.526;8.078;2023-06-04T06:53:54;7.35;;;4.55;;
77191;SDS011;66172;48.526;8.078;2023-06-04T06:56:20;8.07;;;4.40;;
77191;SDS011;66172;48.526;8.078;2023-06-04T06:58:46;8.25;;;4.35;;
77191;SDS011;66172;48.526;8.078;2023-06-04T07:01:12;8.98;;;4.53;;
77191;SDS011;66172;48.526;8.078;2023-06-04T07:03:38;8.60;;;4.30;;
77191;SDS011;66172;48.526;8.078;2023-06-04T07:06:05;7.45;;;4.40;;
77191;SDS011;66172;48.526;8.078;2023-06-04T07:08:32;8.27;;;4.78;;
77191;SDS011;66172;48.526;8.078;2023-06-04T07:10:58;8.52;;;4.82;;
77191;SDS011;66172;48.526;8.078;2023-06-04T07:13:24;8.00;;;5.00;;
77191;SDS011;66172;48.526;8.078;2023-06-04T07:15:50;11.37;;;5.20;;
77191;SDS011;66172;48.526;8.078;2023-06-04T07:18:16;9.23;;;4.80;;
77191;SDS011;66172;48.526;8.078;2023-06-04T07:20:42;8.77;;;4.40;;
77191;SDS011;66172;48.526;8.078;2023-06-04T07:23:08;8.35;;;4.57;;
77191;SDS011;66172;48.526;8.078;2023-06-04T07:25:34;9.03;;;4.43;;
77191;SDS011;66172;48.526;8.078;2023-06-04T07:28:00;7.03;;;4.60;;
77191;SDS011;66172;48.526;8.078;2023-06-04T07:30:29;7.60;;;4.70;;
77191;SDS011;66172;48.526;8.078;2023-06-04T07:32:57;7.65;;;4.60;;
77191;SDS011;66172;48.526;8.078;2023-06-04T07:35:23;7.60;;;4.45;;
77191;SDS011;66172;48.526;8.078;2023-06-04T07:37:49;8.17;;;4.10;;
77191;SDS011;66172;48.526;8.078;2023-06-04T07:40:16;7.78;;;4.00;;
77191;SDS011;66172;48.526;8.078;2023-06-04T07:42:42;6.60;;;4.15;;
77191;SDS011;66172;48.526;8.078;2023-06-04T07:45:12;8.80;;;4.30;;
77191;SDS011;66172;48.526;8.078;2023-06-04T07:47:38;8.43;;;4.00;;
77191;SDS011;66172;48.526;8.078;2023-06-04T07:50:04;9.00;;;4.10;;
77191;SDS011;66172;48.526;8.078;2023-06-04T07:52:31;7.38;;;3.33;;
77191;SDS011;66172;48.526;8.078;2023-06-04T07:54:57;9.57;;;3.70;;
77191;SDS011;66172;48.526;8.078;2023-06-04T07:57:25;7.45;;;3.90;;
77191;SDS011;66172;48.526;8.078;2023-06-04T07:59:50;8.03;;;3.90;;
77191;SDS011;66172;48.526;8.078;2023-06-04T08:02:17;8.60;;;3.80;;
77191;SDS011;66172;48.526;8.078;2023-06-04T08:04:44;9.93;;;3.95;;
77191;SDS011;66172;48.526;8.078;2023-06-04T08:07:10;6.88;;;3.80;;
77191;SDS011;66172;48.526;8.078;2023-06-04T08:09:36;7.10;;;3.43;;
77191;SDS011;66172;48.526;8.078;2023-06-04T08:12:02;12.20;;;3.53;;
77191;SDS011;66172;48.526;8.078;2023-06-04T08:14:28;7.38;;;3.70;;
77191;SDS011;66172;48.526;8.078;2023-06-04T08:16:54;7.75;;;3.10;;
77191;SDS011;66172;48.526;8.078;2023-06-04T08:19:20;7.43;;;3.60;;
77191;SDS011;66172;48.526;8.078;2023-06-04T08:21:46;7.75;;;3.88;;
77191;SDS011;66172;48.526;8.078;2023-06-04T08:24:12;7.28;;;3.30;;
77191;SDS011;66172;48.526;8.078;2023-06-04T08:26:38;7.88;;;3.00;;
77191;SDS011;66172;48.526;8.078;2023-06-04T08:29:05;7.43;;;2.97;;
77191;SDS011;66172;48.526;8.078;2023-06-04T08:31:31;8.48;;;2.72;;
77191;SDS011;66172;48.526;8.078;2023-06-04T08:33:58;7.88;;;2.85;;
77191;SDS011;66172;48.526;8.078;2023-06-04T08:36:24;9.13;;;3.00;;
77191;SDS011;66172;48.526;8.078;2023-06-04T08:38:50;7.57;;;2.92;;
77191;SDS011;66172;48.526;8.078;2023-06-04T08:41:20;7.67;;;2.93;;
77191;SDS011;66172;48.526;8.078;2023-06-04T08:43:47;6.93;;;2.70;;
77191;SDS011;66172;48.526;8.078;2023-06-04T08:46:15;5.97;;;2.85;;
77191;SDS011;66172;48.526;8.078;2023-06-04T08:48:43;6.95;;;3.08;;
77191;SDS011;66172;48.526;8.078;2023-06-04T08:51:09;7.53;;;3.30;;
77191;SDS011;66172;48.526;8.078;2023-06-04T08:53:36;7.50;;;2.80;;
77191;SDS011;66172;48.526;8.078;2023-06-04T08:56:03;7.30;;;3.10;;
77191;SDS011;66172;48.526;8.078;2023-06-04T08:58:30;7.90;;;2.90;;
77191;SDS011;66172;48.526;8.078;2023-06-04T09:00:57;6.78;;;3.38;;
77191;SDS011;66172;48.526;8.078;2023-06-04T09:03:24;7.38;;;3.05;;
77191;SDS011;66172;48.526;8.078;2023-06-04T09:05:51;7.93;;;3.30;;
77191;SDS011;66172;48.526;8.078;2023-06-04T09:08:18;11.40;;;3.20;;
77191;SDS011;66172;48.526;8.078;2023-06-04T09:10:46;6.65;;;3.45;;
77191;SDS011;66172;48.526;8.078;2023-06-04T09:13:17;6.63;;;3.13;;
77191;SDS011;66172;48.526;8.078;2023-06-04T09:15:57;7.63;;;3.10;;
77191;SDS011;66172;48.526;8.078;2023-06-04T09:18:26;7.83;;;3.30;;
77191;SDS011;66172;48.526;8.078;2023-06-04T09:21:00;6.35;;;3.10;;
77191;SDS011;66172;48.526;8.078;2023-06-04T09:23:31;11.75;;;3.63;;
77191;SDS011;66172;48.526;8.078;2023-06-04T09:26:09;8.05;;;3.33;;
77191;SDS011;66172;48.526;8.078;2023-06-04T09:28:42;7.32;;;3.13;;
77191;SDS011;66172;48.526;8.078;2023-06-04T09:31:09;8.23;;;3.57;;
77191;SDS011;66172;48.526;8.078;2023-06-04T09:33:50;7.40;;;3.13;;
77191;SDS011;66172;48.526;8.078;2023-06-04T09:36:16;7.25;;;3.70;;
77191;SDS011;66172;48.526;8.078;2023-06-04T09:38:42;7.60;;;3.45;;
77191;SDS011;66172;48.526;8.078;2023-06-04T09:41:12;6.15;;;3.47;;
77191;SDS011;66172;48.526;8.078;2023-06-04T09:43:39;6.20;;;3.30;;
77191;SDS011;66172;48.526;8.078;2023-06-04T09:46:09;6.30;;;3.30;;
77191;SDS011;66172;48.526;8.078;2023-06-04T09:48:36;7.32;;;3.80;;
77191;SDS011;66172;48.526;8.078;2023-06-04T09:51:06;6.70;;;3.20;;
77191;SDS011;66172;48.526;8.078;2023-06-04T09:53:32;6.20;;;3.47;;
77191;SDS011;66172;48.526;8.078;2023-06-04T09:55:59;7.37;;;3.77;;
77191;SDS011;66172;48.526;8.078;2023-06-04T09:58:29;6.90;;;3.40;;
77191;SDS011;66172;48.526;8.078;2023-06-04T10:00:57;7.97;;;3.50;;
77191;SDS011;66172;48.526;8.078;2023-06-04T10:03:24;7.03;;;3.50;;
77191;SDS011;66172;48.526;8.078;2023-06-04T10:05:52;6.70;;;3.43;;
77191;SDS011;66172;48.526;8.078;2023-06-04T10:08:20;7.50;;;3.15;;
77191;SDS011;66172;48.526;8.078;2023-06-04T10:10:49;8.77;;;3.65;;
77191;SDS011;66172;48.526;8.078;2023-06-04T10:13:18;8.48;;;3.30;;
77191;SDS011;66172;48.526;8.078;2023-06-04T10:15:47;8.32;;;3.60;;
77191;SDS011;66172;48.526;8.078;2023-06-04T10:18:15;5.97;;;3.23;;
77191;SDS011;66172;48.526;8.078;2023-06-04T10:20:41;5.97;;;3.03;;
77191;SDS011;66172;48.526;8.078;2023-06-04T10:23:08;7.97;;;3.38;;
77191;SDS011;66172;48.526;8.078;2023-06-04T10:25:34;7.85;;;3.50;;
77191;SDS011;66172;48.526;8.078;2023-06-04T10:28:01;8.20;;;3.20;;
77191;SDS011;66172;48.526;8.078;2023-06-04T10:30:29;7.77;;;3.50;;
77191;SDS011;66172;48.526;8.078;2023-06-04T10:32:56;6.93;;;3.22;;
77191;SDS011;66172;48.526;8.078;2023-06-04T10:35:32;6.05;;;3.10;;
77191;SDS011;66172;48.526;8.078;2023-06-04T10:38:05;6.55;;;3.20;;
77191;SDS011;66172;48.526;8.078;2023-06-04T10:40:42;6.68;;;2.97;;
77191;SDS011;66172;48.526;8.078;2023-06-04T10:43:08;6.33;;;2.70;;
77191;SDS011;66172;48.526;8.078;2023-06-04T10:45:35;7.65;;;2.95;;
77191;SDS011;66172;48.526;8.078;2023-06-04T10:48:02;7.28;;;2.83;;
77191;SDS011;66172;48.526;8.078;2023-06-04T10:50:30;6.47;;;2.97;;
77191;SDS011;66172;48.526;8.078;2023-06-04T10:52:58;5.53;;;2.80;;
77191;SDS011;66172;48.526;8.078;2023-06-04T10:55:24;6.77;;;3.10;;
77191;SDS011;66172;48.526;8.078;2023-06-04T11:00:20;7.40;;;3.35;;
77191;SDS011;66172;48.526;8.078;2023-06-04T11:02:53;6.10;;;3.00;;
77191;SDS011;66172;48.526;8.078;2023-06-04T11:05:20;6.72;;;3.00;;
77191;SDS011;66172;48.526;8.078;2023-06-04T11:07:48;6.90;;;3.30;;
77191;SDS011;66172;48.526;8.078;2023-06-04T11:10:15;5.28;;;2.92;;
77191;SDS011;66172;48.526;8.078;2023-06-04T11:12:48;7.13;;;3.30;;
77191;SDS011;66172;48.526;8.078;2023-06-04T11:15:18;9.88;;;3.60;;
77191;SDS011;66172;48.526;8.078;2023-06-04T11:17:54;7.70;;;3.45;;
77191;SDS011;66172;48.526;8.078;2023-06-04T11:20:23;7.73;;;3.10;;
77191;SDS011;66172;48.526;8.078;2023-06-04T11:22:53;6.97;;;3.05;;
77191;SDS011;66172;48.526;8.078;2023-06-04T11:25:21;5.90;;;3.20;;
77191;SDS011;66172;48.526;8.078;2023-06-04T11:27:49;5.78;;;3.10;;
77191;SDS011;66172;48.526;8.078;2023-06-04T11:30:18;6.22;;;3.10;;
77191;SDS011;66172;48.526;8.078;2023-06-04T11:32:44;7.97;;;3.50;;
77191;SDS011;66172;48.526;8.078;2023-06-04T11:35:10;8.32;;;3.40;;
77191;SDS011;66172;48.526;8.078;2023-06-04T11:37:39;6.60;;;3.10;;
77191;SDS011;66172;48.526;8.078;2023-06-04T11:40:15;7.53;;;3.17;;
77191;SDS011;66172;48.526;8.078;2023-06-04T11:42:42;9.38;;;3.40;;
77191;SDS011;66172;48.526;8.078;2023-06-04T11:45:10;8.27;;;3.37;;
77191;SDS011;66172;48.526;8.078;2023-06-04T11:47:37;8.27;;;3.50;;
77191;SDS011;66172;48.526;8.078;2023-06-04T11:50:03;8.05;;;3.50;;
77191;SDS011;66172;48.526;8.078;2023-06-04T11:52:30;6.80;;;3.05;;
77191;SDS011;66172;48.526;8.078;2023-06-04T11:54:56;7.10;;;3.33;;
77191;SDS011;66172;48.526;8.078;2023-06-04T11:57:23;6.03;;;3.50;;
77191;SDS011;66172;48.526;8.078;2023-06-04T11:59:49;5.18;;;3.17;;
77191;SDS011;66172;48.526;8.078;2023-06-04T12:02:15;10.10;;;3.40;;
77191;SDS011;66172;48.526;8.078;2023-06-04T12:04:41;9.35;;;3.60;;
77191;SDS011;66172;48.526;8.078;2023-06-04T12:07:07;8.63;;;3.43;;
77191;SDS011;66172;48.526;8.078;2023-06-04T12:09:34;7.28;;;3.17;;
77191;SDS011;66172;48.526;8.078;2023-06-04T12:12:01;9.02;;;3.08;;
77191;SDS011;66172;48.526;8.078;2023-06-04T12:14:28;6.28;;;3.08;;
77191;SDS011;66172;48.526;8.078;2023-06-04T12:17:01;5.68;;;3.10;;
77191;SDS011;66172;48.526;8.078;2023-06-04T12:19:31;8.10;;;3.20;;
77191;SDS011;66172;48.526;8.078;2023-06-04T12:22:06;10.57;;;3.67;;
77191;SDS011;66172;48.526;8.078;2023-06-04T12:24:34;8.93;;;3.92;;
77191;SDS011;66172;48.526;8.078;2023-06-04T12:27:11;7.97;;;3.10;;
77191;SDS011;66172;48.526;8.078;2023-06-04T12:29:37;6.60;;;3.20;;
77191;SDS011;66172;48.526;8.078;2023-06-04T12:32:03;7.60;;;3.25;;
77191;SDS011;66172;48.526;8.078;2023-06-04T12:34:33;8.80;;;3.40;;
77191;SDS011;66172;48.526;8.078;2023-06-04T12:37:06;6.93;;;3.00;;
77191;SDS011;66172;48.526;8.078;2023-06-04T12:39:36;7.05;;;3.20;;
77191;SDS011;66172;48.526;8.078;2023-06-04T12:42:02;6.97;;;3.37;;
77191;SDS011;66172;48.526;8.078;2023-06-04T12:44:30;8.90;;;3.15;;
77191;SDS011;66172;48.526;8.078;2023-06-04T12:46:56;7.20;;;3.60;;
77191;SDS011;66172;48.526;8.078;2023-06-04T12:49:22;9.32;;;3.50;;
77191;SDS011;66172;48.526;8.078;2023-06-04T12:51:48;9.85;;;3.25;;
77191;SDS011;66172;48.526;8.078;2023-06-04T12:54:14;6.73;;;3.33;;
77191;SDS011;66172;48.526;8.078;2023-06-04T12:56:40;6.75;;;3.25;;
77191;SDS011;66172;48.526;8.078;2023-06-04T12:59:06;8.40;;;3.67;;
77191;SDS011;66172;48.526;8.078;2023-06-04T13:01:32;9.00;;;3.50;;
77191;SDS011;66172;48.526;8.078;2023-06-04T13:03:58;9.83;;;3.30;;
77191;SDS011;66172;48.526;8.078;2023-06-04T13:06:24;5.70;;;2.88;;
77191;SDS011;66172;48.526;8.078;2023-06-04T13:08:50;7.63;;;3.58;;
77191;SDS011;66172;48.526;8.078;2023-06-04T13:11:17;6.35;;;3.20;;
77191;SDS011;66172;48.526;8.078;2023-06-04T13:13:43;6.53;;;2.90;;
77191;SDS011;66172;48.526;8.078;2023-06-04T13:16:09;7.40;;;3.00;;
77191;SDS011;66172;48.526;8.078;2023-06-04T13:18:35;8.63;;;3.20;;
77191;SDS011;66172;48.526;8.078;2023-06-04T13:21:01;9.32;;;3.40;;
77191;SDS011;66172;48.526;8.078;2023-06-04T13:23:27;5.90;;;3.03;;
77191;SDS011;66172;48.526;8.078;2023-06-04T13:25:53;7.43;;;3.37;;
77191;SDS011;66172;48.526;8.078;2023-06-04T13:28:19;7.32;;;3.00;;
77191;SDS011;66172;48.526;8.078;2023-06-04T13:30:45;12.15;;;3.53;;
77191;SDS011;66172;48.526;8.078;2023-06-04T13:33:11;9.75;;;3.33;;
77191;SDS011;66172;48.526;8.078;2023-06-04T13:35:38;7.97;;;3.17;;
77191;SDS011;66172;48.526;8.078;2023-06-04T13:38:04;8.55;;;3.58;;
77191;SDS011;66172;48.526;8.078;2023-06-04T13:40:33;6.93;;;3.10;;
77191;SDS011;66172;48.526;8.078;2023-06-04T13:43:00;6.40;;;3.20;;
77191;SDS011;66172;48.526;8.078;2023-06-04T13:45:26;10.05;;;3.35;;
77191;SDS011;66172;48.526;8.078;2023-06-04T13:47:52;6.73;;;3.13;;
77191;SDS011;66172;48.526;8.078;2023-06-04T13:50:18;8.93;;;3.60;;
77191;SDS011;66172;48.526;8.078;2023-06-04T13:52:44;8.05;;;3.17;;
77191;SDS011;66172;48.526;8.078;2023-06-04T13:55:11;5.85;;;3.30;;
77191;SDS011;66172;48.526;8.078;2023-06-04T13:57:38;7.43;;;3.27;;
77191;SDS011;66172;48.526;8.078;2023-06-04T14:00:04;6.95;;;3.50;;
77191;SDS011;66172;48.526;8.078;2023-06-04T14:02:32;5.90;;;3.17;;
77191;SDS011;66172;48.526;8.078;2023-06-04T14:04:58;7.32;;;2.90;;
77191;SDS011;66172;48.526;8.078;2023-06-04T14:07:24;6.67;;;3.40;;
77191;SDS011;66172;48.526;8.078;2023-06-04T14:09:49;8.20;;;3.28;;
77191;SDS011;66172;48.526;8.078;2023-06-04T14:12:21;8.55;;;3.20;;
77191;SDS011;66172;48.526;8.078;2023-06-04T14:14:47;5.78;;;3.25;;
77191;SDS011;66172;48.526;8.078;2023-06-04T14:17:13;11.30;;;3.20;;
77191;SDS011;66172;48.526;8.078;2023-06-04T14:19:39;6.80;;;3.42;;
77191;SDS011;66172;48.526;8.078;2023-06-04T14:22:06;12.07;;;3.60;;
77191;SDS011;66172;48.526;8.078;2023-06-04T14:24:32;8.45;;;3.22;;
77191;SDS011;66172;48.526;8.078;2023-06-04T14:26:58;8.25;;;2.83;;
77191;SDS011;66172;48.526;8.078;2023-06-04T14:29:24;10.80;;;3.77;;
77191;SDS011;66172;48.526;8.078;2023-06-04T14:31:50;7.72;;;3.35;;
77191;SDS011;66172;48.526;8.078;2023-06-04T14:34:16;6.85;;;3.08;;
77191;SDS011;66172;48.526;8.078;2023-06-04T14:36:41;8.20;;;2.90;;
77191;SDS011;66172;48.526;8.078;2023-06-04T14:39:07;8.48;;;3.05;;
77191;SDS011;66172;48.526;8.078;2023-06-04T14:41:33;7.45;;;3.10;;
77191;SDS011;66172;48.526;8.078;2023-06-04T14:43:59;7.87;;;2.90;;
77191;SDS011;66172;48.526;8.078;2023-06-04T14:46:25;8.35;;;3.28;;